createdAt,value
2019-03-24T00:02:25.306Z,96507.30
2019-03-24T00:04:51.352Z,96498.81
2019-03-24T00:07:17.479Z,96495.72
2019-03-24T00:09:43.611Z,96500.28
2019-03-24T00:12:09.733Z,96489.63
2019-03-24T00:14:35.858Z,96495.34
2019-03-24T00:17:02.001Z,96488.64
2019-03-24T00:19:28.158Z,96496.98
2019-03-24T00:21:54.308Z,96489.80
2019-03-24T00:24:20.531Z,96486.50
2019-03-24T00:26:50.265Z,96482.56
2019-03-24T00:29:16.386Z,96487.45
2019-03-24T00:31:42.586Z,96477.80
2019-03-24T00:34:08.699Z,96479.27
2019-03-24T00:36:34.861Z,96484.44
2019-03-24T00:39:00.991Z,96479.33
2019-03-24T00:41:29.587Z,96483.81
2019-03-24T00:43:55.714Z,96484.33
2019-03-24T00:46:21.835Z,96475.81
2019-03-24T00:48:47.905Z,96472.23
2019-03-24T00:51:14.078Z,96475.18
2019-03-24T00:53:40.326Z,96471.23
2019-03-24T00:56:06.550Z,96472.81
2019-03-24T00:58:32.679Z,96470.55
2019-03-24T01:00:58.917Z,96467.89
2019-03-24T01:03:25.154Z,96462.33
2019-03-24T01:05:51.374Z,96461.50
2019-03-24T01:08:17.713Z,96471.29
2019-03-24T01:10:43.839Z,96460.80
2019-03-24T01:13:11.667Z,96457.05
2019-03-24T01:15:47.309Z,96452.80
2019-03-24T01:18:05.841Z,96453.48
2019-03-24T01:20:32.007Z,96457.67
2019-03-24T01:22:58.236Z,96448.66
2019-03-24T01:25:25.989Z,96447.34
2019-03-24T01:27:53.404Z,96445.52
2019-03-24T01:30:19.644Z,96450.76
2019-03-24T01:32:45.789Z,96442.58
2019-03-24T01:35:11.927Z,96446.16
2019-03-24T01:37:38.068Z,96437.45
2019-03-24T01:40:05.422Z,96442.84
2019-03-24T01:42:31.551Z,96441.20
2019-03-24T01:44:57.717Z,96438.70
2019-03-24T01:47:23.878Z,96442.63
2019-03-24T01:49:50.044Z,96440.02
2019-03-24T01:52:16.174Z,96445.25
2019-03-24T01:54:42.254Z,96434.78
2019-03-24T01:57:08.385Z,96437.55
2019-03-24T01:59:34.343Z,96432.31
2019-03-24T02:02:00.472Z,96430.06
2019-03-24T02:04:26.525Z,96424.67
2019-03-24T02:06:52.667Z,96422.68
2019-03-24T02:09:18.824Z,96429.69
2019-03-24T02:11:44.950Z,96427.02
2019-03-24T02:14:11.123Z,96432.72
2019-03-24T02:16:37.246Z,96427.17
2019-03-24T02:19:07.463Z,96433.88
2019-03-24T02:21:31.353Z,96433.25
2019-03-24T02:23:57.515Z,96436.17
2019-03-24T02:26:23.771Z,96428.41
2019-03-24T02:28:49.917Z,96436.52
2019-03-24T02:31:15.951Z,96427.52
2019-03-24T02:33:42.157Z,96433.41
2019-03-24T02:36:08.277Z,96422.27
2019-03-24T02:38:34.409Z,96425.98
2019-03-24T02:41:00.537Z,96432.73
2019-03-24T02:43:26.604Z,96434.36
2019-03-24T02:45:52.718Z,96433.05
2019-03-24T02:48:18.850Z,96436.83
2019-03-24T02:50:46.161Z,96428.45
2019-03-24T02:53:12.207Z,96425.83
2019-03-24T02:55:38.322Z,96423.88
2019-03-24T02:58:05.999Z,96422.21
2019-03-24T03:00:32.156Z,96412.67
2019-03-24T03:02:58.322Z,96421.88
2019-03-24T03:05:24.579Z,96410.11
2019-03-24T03:07:50.758Z,96417.34
2019-03-24T03:10:17.097Z,96414.04
2019-03-24T03:12:43.223Z,96406.81
2019-03-24T03:15:09.883Z,96414.04
2019-03-24T03:17:35.976Z,96408.12
2019-03-24T03:20:04.314Z,96407.30
2019-03-24T03:22:30.427Z,96406.52
2019-03-24T03:24:56.646Z,96402.75
2019-03-24T03:27:23.853Z,96405.52
2019-03-24T03:29:49.996Z,96404.88
2019-03-24T03:32:16.134Z,96407.52
2019-03-24T03:34:42.295Z,96403.59
2019-03-24T03:37:08.439Z,96398.34
2019-03-24T03:39:34.548Z,96400.96
2019-03-24T03:42:00.698Z,96411.12
2019-03-24T03:44:26.828Z,96403.75
2019-03-24T03:46:53.451Z,96406.67
2019-03-24T03:49:19.741Z,96407.83
2019-03-24T03:51:45.786Z,96416.41
2019-03-24T03:54:12.116Z,96418.56
2019-03-24T03:56:38.252Z,96418.36
2019-03-24T03:59:04.393Z,96413.66
2019-03-24T04:01:30.933Z,96418.41
2019-03-24T04:03:56.962Z,96423.34
2019-03-24T04:06:23.119Z,96427.47
2019-03-24T04:08:49.193Z,96421.10
2019-03-24T04:11:15.376Z,96431.92
2019-03-24T04:13:41.514Z,96430.94
2019-03-24T04:16:07.669Z,96433.77
2019-03-24T04:18:33.683Z,96435.23
2019-03-24T04:20:59.744Z,96433.94
2019-03-24T04:23:25.893Z,96435.09
2019-03-24T04:25:51.921Z,96432.00
2019-03-24T04:28:18.076Z,96424.20
2019-03-24T04:30:46.528Z,96430.08
2019-03-24T04:33:12.662Z,96426.44
2019-03-24T04:35:38.761Z,96436.55
2019-03-24T04:38:04.878Z,96441.33
2019-03-24T04:40:31.212Z,96435.84
2019-03-24T04:42:57.337Z,96435.26
2019-03-24T04:45:23.484Z,96441.55
2019-03-24T04:47:49.513Z,96443.70
2019-03-24T04:50:15.717Z,96441.77
2019-03-24T04:52:41.851Z,96455.78
2019-03-24T04:55:08.628Z,96450.55
2019-03-24T04:57:34.776Z,96451.70
2019-03-24T05:00:01.329Z,96446.16
2019-03-24T05:02:28.780Z,96448.78
2019-03-24T05:04:54.874Z,96441.45
2019-03-24T05:07:21.023Z,96445.27
2019-03-24T05:09:47.393Z,96445.80
2019-03-24T05:12:13.513Z,96455.69
2019-03-24T05:14:39.564Z,96450.98
2019-03-24T05:17:05.734Z,96456.38
2019-03-24T05:19:31.858Z,96454.77
2019-03-24T05:21:57.834Z,96448.25
2019-03-24T05:24:23.959Z,96456.69
2019-03-24T05:26:50.141Z,96450.10
2019-03-24T05:29:16.181Z,96460.09
2019-03-24T05:31:42.302Z,96449.16
2019-03-24T05:34:08.425Z,96460.00
2019-03-24T05:36:34.365Z,96455.00
2019-03-24T05:39:00.483Z,96467.62
2019-03-24T05:41:26.507Z,96464.70
2019-03-24T05:43:52.728Z,96473.81
2019-03-24T05:46:18.895Z,96478.38
2019-03-24T05:48:45.069Z,96486.23
2019-03-24T05:51:11.239Z,96486.86
2019-03-24T05:53:37.361Z,96473.72
2019-03-24T05:56:03.485Z,96480.16
2019-03-24T05:58:29.616Z,96478.95
2019-03-24T06:00:55.755Z,96481.46
2019-03-24T06:03:21.892Z,96481.00
2019-03-24T06:05:48.013Z,96481.67
2019-03-24T06:08:14.140Z,96472.56
2019-03-24T06:10:44.413Z,96476.53
2019-03-24T06:13:08.325Z,96480.34
2019-03-24T06:15:34.484Z,96472.97
2019-03-24T06:18:00.604Z,96471.90
2019-03-24T06:20:26.641Z,96467.53
2019-03-24T06:22:52.803Z,96479.84
2019-03-24T06:25:18.932Z,96479.25
2019-03-24T06:27:44.997Z,96477.94
2019-03-24T06:30:11.131Z,96479.45
2019-03-24T06:32:37.277Z,96482.91
2019-03-24T06:35:04.928Z,96488.34
2019-03-24T06:37:31.097Z,96492.31
2019-03-24T06:39:57.218Z,96489.20
2019-03-24T06:42:23.188Z,96485.59
2019-03-24T06:44:49.308Z,96482.69
2019-03-24T06:47:15.367Z,96489.23
2019-03-24T06:49:41.408Z,96486.62
2019-03-24T06:52:07.739Z,96482.55
2019-03-24T06:54:33.872Z,96493.34
2019-03-24T06:57:00.184Z,96491.38
2019-03-24T06:59:26.125Z,96495.67
2019-03-24T07:01:52.156Z,96496.66
2019-03-24T07:04:18.296Z,96500.95
2019-03-24T07:06:44.441Z,96498.19
2019-03-24T07:09:10.598Z,96488.84
2019-03-24T07:11:36.721Z,96490.83
2019-03-24T07:14:02.849Z,96496.23
2019-03-24T07:16:28.967Z,96492.00
2019-03-24T07:18:55.090Z,96491.36
2019-03-24T07:21:21.230Z,96490.39
2019-03-24T07:23:47.375Z,96489.27
2019-03-24T07:26:13.512Z,96486.98
2019-03-24T07:28:40.668Z,96489.14
2019-03-24T07:31:06.715Z,96483.40
2019-03-24T07:33:32.839Z,96485.05
2019-03-24T07:35:59.070Z,96476.55
2019-03-24T07:38:25.236Z,96474.57
2019-03-24T07:40:51.385Z,96474.92
2019-03-24T07:43:17.620Z,96475.59
2019-03-24T07:45:43.778Z,96478.23
2019-03-24T07:48:18.651Z,96470.17
2019-03-24T07:50:40.003Z,96475.28
2019-03-24T07:53:06.149Z,96470.20
2019-03-24T07:55:32.280Z,96471.64
2019-03-24T07:57:58.408Z,96466.73
2019-03-24T08:00:33.310Z,96466.39
2019-03-24T08:02:59.588Z,96459.16
2019-03-24T08:05:25.818Z,96462.13
2019-03-24T08:07:54.071Z,96469.36
2019-03-24T08:10:20.881Z,96468.35
2019-03-24T08:12:47.569Z,96458.50
2019-03-24T08:15:18.803Z,96455.05
2019-03-24T08:17:45.221Z,96448.31
2019-03-24T08:20:13.872Z,96456.20
2019-03-24T08:22:40.015Z,96455.52
2019-03-24T08:25:06.351Z,96441.87
2019-03-24T08:27:32.604Z,96446.47
2019-03-24T08:29:58.760Z,96445.64
2019-03-24T08:32:24.915Z,96445.61
2019-03-24T08:34:51.084Z,96446.59
2019-03-24T08:37:17.223Z,96452.64
2019-03-24T08:39:43.362Z,96442.95
2019-03-24T08:42:09.647Z,96435.70
2019-03-24T08:44:35.892Z,96436.19
2019-03-24T08:47:02.013Z,96433.34
2019-03-24T08:49:28.233Z,96436.45
2019-03-24T08:51:54.330Z,96427.36
2019-03-24T08:54:20.721Z,96427.80
2019-03-24T08:56:47.351Z,96434.84
2019-03-24T08:59:13.607Z,96430.83
2019-03-24T09:01:39.957Z,96428.74
2019-03-24T09:04:16.462Z,96433.33
2019-03-24T09:06:40.357Z,96438.89
2019-03-24T09:09:06.750Z,96437.85
2019-03-24T09:11:35.212Z,96434.50
2019-03-24T09:14:01.624Z,96436.59
2019-03-24T09:16:27.923Z,96430.12
2019-03-24T09:18:54.190Z,96429.73
2019-03-24T09:21:23.754Z,96421.08
2019-03-24T09:23:57.360Z,96424.16
2019-03-24T09:26:23.718Z,96420.30
2019-03-24T09:28:59.204Z,96417.63
2019-03-24T09:31:25.660Z,96416.25
2019-03-24T09:34:45.163Z,96418.19
2019-03-24T09:37:01.340Z,96413.50
2019-03-24T09:40:00.469Z,96402.73
2019-03-24T09:45:37.122Z,96404.37
2019-03-24T09:48:21.939Z,96397.27
2019-03-24T10:07:07.220Z,96362.36
2019-03-24T10:09:33.590Z,96355.38
2019-03-24T10:12:00.205Z,96353.91
2019-03-24T10:14:26.957Z,96350.13
2019-03-24T10:16:55.616Z,96351.20
2019-03-24T10:19:35.571Z,96341.17
2019-03-24T10:22:04.924Z,96338.56
2019-03-24T10:24:33.235Z,96340.00
2019-03-24T10:26:59.984Z,96337.30
2019-03-24T10:29:26.234Z,96334.20
2019-03-24T10:32:18.719Z,96335.69
2019-03-24T10:34:45.242Z,96335.02
2019-03-24T10:37:11.800Z,96332.53
2019-03-24T10:39:40.158Z,96325.74
2019-03-24T10:42:06.492Z,96325.07
2019-03-24T10:44:33.054Z,96319.05
2019-03-24T10:47:08.421Z,96322.88
2019-03-24T10:49:34.706Z,96323.61
2019-03-24T10:52:09.659Z,96323.34
2019-03-24T10:54:36.140Z,96318.24
2019-03-24T10:57:11.232Z,96313.48
2019-03-24T10:59:37.670Z,96298.78
2019-03-24T11:05:59.714Z,96294.72
2019-03-24T11:08:27.426Z,96289.61
2019-03-24T11:10:53.894Z,96291.47
2019-03-24T11:13:21.705Z,96285.96
2019-03-24T11:15:48.116Z,96281.86
2019-03-24T11:18:14.828Z,96286.45
2019-03-24T11:20:41.404Z,96284.34
2019-03-24T11:23:08.062Z,96279.23
2019-03-24T11:25:48.647Z,96277.37
2019-03-24T11:28:15.485Z,96274.62
2019-03-24T11:30:47.051Z,96278.49
2019-03-24T11:33:13.354Z,96271.16
2019-03-24T11:35:39.912Z,96275.64
2019-03-24T11:38:06.679Z,96266.69
2019-03-24T11:43:41.127Z,96253.51
2019-03-24T11:49:16.420Z,96250.05
2019-03-24T11:51:42.791Z,96256.77
2019-03-24T11:54:09.100Z,96243.72
2019-03-24T11:56:35.330Z,96242.89
2019-03-24T11:59:01.590Z,96240.86
2019-03-24T12:01:37.760Z,96235.15
2019-03-24T12:03:56.140Z,96228.64
2019-03-24T12:06:22.434Z,96223.95
2019-03-24T12:08:48.807Z,96216.00
2019-03-24T12:11:15.109Z,96211.11
2019-03-24T12:13:41.379Z,96202.95
2019-03-24T12:16:07.734Z,96198.75
2019-03-24T12:18:34.450Z,96183.52
2019-03-24T12:21:00.759Z,96192.91
2019-03-24T12:23:27.005Z,96189.63
2019-03-24T12:25:53.293Z,96185.31
2019-03-24T12:28:19.589Z,96178.30
2019-03-24T12:30:45.856Z,96173.20
2019-03-24T12:33:12.133Z,96177.60
2019-03-24T12:35:38.379Z,96175.89
2019-03-24T12:38:04.674Z,96166.28
2019-03-24T12:40:31.020Z,96160.78
2019-03-24T12:42:57.271Z,96167.39
2019-03-24T12:45:23.511Z,96161.95
2019-03-24T12:47:49.815Z,96163.30
2019-03-24T12:50:16.936Z,96162.19
2019-03-24T12:52:43.228Z,96160.59
2019-03-24T12:55:09.529Z,96151.40
2019-03-24T12:57:35.837Z,96138.67
2019-03-24T13:00:08.062Z,96156.61
2019-03-24T13:02:34.422Z,96150.20
2019-03-24T13:05:00.693Z,96151.83
2019-03-24T13:07:27.015Z,96137.05
2019-03-24T13:09:53.341Z,96138.17
2019-03-24T13:12:19.682Z,96133.39
2019-03-24T13:14:45.989Z,96136.15
2019-03-24T13:17:12.273Z,96129.44
2019-03-24T13:19:38.678Z,96125.06
2019-03-24T13:22:04.983Z,96122.81
2019-03-24T13:24:31.365Z,96117.59
2019-03-24T13:27:00.588Z,96112.92
2019-03-24T13:29:26.887Z,96110.47
2019-03-24T13:31:53.156Z,96105.16
2019-03-24T13:34:22.240Z,96105.44
2019-03-24T13:36:48.590Z,96099.21
2019-03-24T13:39:14.909Z,96099.02
2019-03-24T13:41:41.176Z,96095.54
2019-03-24T13:44:07.435Z,96090.52
2019-03-24T13:46:33.704Z,96089.59
2019-03-24T13:49:01.381Z,96087.67
2019-03-24T13:51:27.651Z,96081.33
2019-03-24T13:53:53.899Z,96080.30
2019-03-24T13:56:20.259Z,96073.74
2019-03-24T13:58:46.572Z,96076.83
2019-03-24T14:01:13.296Z,96068.33
2019-03-24T14:03:39.577Z,96057.94
2019-03-24T14:06:06.344Z,96055.97
2019-03-24T14:08:32.613Z,96049.41
2019-03-24T14:10:58.849Z,96040.20
2019-03-24T14:13:25.128Z,96031.77
2019-03-24T14:15:51.406Z,96027.65
2019-03-24T14:18:17.650Z,96035.50
2019-03-24T14:20:45.814Z,96034.95
2019-03-24T14:23:14.295Z,96041.05
2019-03-24T14:25:40.441Z,96034.59
2019-03-24T14:28:06.733Z,96025.15
2019-03-24T14:30:40.557Z,96019.01
2019-03-24T14:33:06.793Z,96018.86
2019-03-24T14:35:33.064Z,96020.14
2019-03-24T14:37:59.349Z,96020.41
2019-03-24T14:40:25.809Z,96013.33
2019-03-24T14:42:52.089Z,96005.36
2019-03-24T14:45:18.366Z,96003.91
2019-03-24T14:47:44.672Z,95995.76
2019-03-24T14:50:11.063Z,95994.31
2019-03-24T14:52:38.739Z,95998.52
2019-03-24T14:55:06.776Z,95983.59
2019-03-24T14:57:33.083Z,95990.83
2019-03-24T14:59:59.356Z,95981.98
2019-03-24T15:02:25.636Z,95977.27
2019-03-24T15:04:51.885Z,95972.62
2019-03-24T15:07:18.131Z,95977.61
2019-03-24T15:09:47.429Z,95971.80
2019-03-24T15:12:13.514Z,95966.48
2019-03-24T15:14:39.826Z,95971.80
2019-03-24T15:17:06.045Z,95967.81
2019-03-24T15:19:32.396Z,95970.25
2019-03-24T15:21:58.626Z,95971.80
2019-03-24T15:24:24.897Z,95975.88
2019-03-24T15:26:51.160Z,95964.20
2019-03-24T15:29:17.458Z,95954.47
2019-03-24T15:31:43.709Z,95959.47
2019-03-24T15:34:09.709Z,95967.81
2019-03-24T15:36:36.133Z,95963.39
2019-03-24T15:39:06.097Z,95966.96
2019-03-24T15:41:32.414Z,95959.78
2019-03-24T15:43:58.724Z,95964.30
2019-03-24T15:46:24.886Z,95959.22
2019-03-24T15:48:51.276Z,95959.84
2019-03-24T15:51:17.570Z,95955.86
2019-03-24T15:53:47.044Z,95951.59
2019-03-24T15:56:13.369Z,95961.77
2019-03-24T15:58:39.668Z,95960.23
2019-03-24T16:01:06.109Z,95958.02
2019-03-24T16:03:32.339Z,95952.20
2019-03-24T16:05:58.503Z,95949.95
2019-03-24T16:08:24.793Z,95949.38
2019-03-24T16:10:52.255Z,95944.57
2019-03-24T16:13:18.608Z,95951.81
2019-03-24T16:15:44.828Z,95939.77
2019-03-24T16:18:11.202Z,95935.28
2019-03-24T16:20:37.481Z,95949.38
2019-03-24T16:23:04.010Z,95945.97
2019-03-24T16:25:30.294Z,95947.89
2019-03-24T16:27:57.076Z,95952.92
2019-03-24T16:30:23.401Z,95946.28
2019-03-24T16:32:49.522Z,95952.32
2019-03-24T16:35:15.779Z,95950.89
2019-03-24T16:37:42.032Z,95942.83
2019-03-24T16:40:08.366Z,95945.61
2019-03-24T16:42:34.492Z,95949.75
2019-03-24T16:45:00.612Z,95946.40
2019-03-24T16:47:26.845Z,95942.95
2019-03-24T16:49:52.943Z,95944.56
2019-03-24T16:52:19.092Z,95932.33
2019-03-24T16:54:47.135Z,95926.92
2019-03-24T16:57:13.659Z,95925.01
2019-03-24T16:59:39.782Z,95924.12
2019-03-24T17:02:06.033Z,95913.27
2019-03-24T17:04:32.269Z,95915.11
2019-03-24T17:07:00.382Z,95917.66
2019-03-24T17:09:26.705Z,95912.28
2019-03-24T17:11:53.141Z,95913.88
2019-03-24T17:14:19.628Z,95904.93
2019-03-24T17:16:51.885Z,95909.24
2019-03-24T17:19:18.143Z,95904.09
2019-03-24T17:21:49.789Z,95903.42
2019-03-24T17:24:12.670Z,95907.52
2019-03-24T17:26:38.931Z,95916.84
2019-03-24T17:29:05.176Z,95916.98
2019-03-24T17:31:31.469Z,95914.55
2019-03-24T17:33:57.732Z,95911.39
2019-03-24T17:36:24.060Z,95910.50
2019-03-24T17:38:50.238Z,95912.44
2019-03-24T17:41:20.349Z,95917.48
2019-03-24T17:43:46.509Z,95919.66
2019-03-24T17:46:12.819Z,95914.18
2019-03-24T17:48:39.058Z,95904.30
2019-03-24T17:51:05.299Z,95907.98
2019-03-24T17:53:31.604Z,95907.30
2019-03-24T17:55:57.904Z,95912.09
2019-03-24T17:58:24.139Z,95909.35
2019-03-24T18:00:52.193Z,95903.55
2019-03-24T18:03:18.481Z,95906.50
2019-03-24T18:05:51.874Z,95904.30
2019-03-24T18:08:15.664Z,95901.17
2019-03-24T18:10:41.923Z,95905.23
2019-03-24T18:13:08.228Z,95908.40
2019-03-24T18:15:34.413Z,95907.51
2019-03-24T18:18:00.705Z,95906.28
2019-03-24T18:20:28.923Z,95900.09
2019-03-24T18:22:55.074Z,95901.41
2019-03-24T18:25:27.294Z,95906.59
2019-03-24T18:27:49.517Z,95910.77
2019-03-24T18:30:16.085Z,95910.15
2019-03-24T18:32:42.382Z,95911.18
2019-03-24T18:35:08.922Z,95908.63
2019-03-24T18:37:35.118Z,95902.63
2019-03-24T18:40:01.427Z,95897.14
2019-03-24T18:42:28.840Z,95893.37
2019-03-24T18:44:55.230Z,95892.27
2019-03-24T18:47:21.490Z,95886.36
2019-03-24T18:49:47.795Z,95895.41
2019-03-24T18:52:22.328Z,95892.85
2019-03-24T18:54:43.290Z,95894.47
2019-03-24T18:57:10.717Z,95888.77
2019-03-24T18:59:37.075Z,95888.97
2019-03-24T19:02:03.304Z,95890.00
2019-03-24T19:04:29.551Z,95887.77
2019-03-24T19:06:55.797Z,95887.36
2019-03-24T19:09:21.985Z,95882.98
2019-03-24T19:11:48.119Z,95882.03
2019-03-24T19:14:14.355Z,95890.28
2019-03-24T19:16:40.394Z,95888.42
2019-03-24T19:19:06.776Z,95891.05
2019-03-24T19:21:33.155Z,95888.69
2019-03-24T19:23:59.530Z,95879.84
2019-03-24T19:28:54.213Z,95876.91
2019-03-24T19:31:20.499Z,95883.92
2019-03-24T19:33:46.825Z,95869.47
2019-03-24T19:36:13.129Z,95858.28
2019-03-24T19:38:40.386Z,95861.33
2019-03-24T19:41:06.653Z,95863.05
2019-03-24T19:43:32.966Z,95853.27
2019-03-24T19:45:59.408Z,95854.66
2019-03-24T19:48:25.782Z,95842.86
2019-03-24T19:50:52.091Z,95840.90
2019-03-24T19:53:18.373Z,95842.70
2019-03-24T19:55:44.618Z,95836.28
2019-03-24T19:58:10.893Z,95829.13
2019-03-24T20:00:38.879Z,95831.95
2019-03-24T20:03:05.243Z,95827.96
2019-03-24T20:05:31.425Z,95820.02
2019-03-24T20:07:57.681Z,95813.17
2019-03-24T20:10:23.980Z,95817.59
2019-03-24T20:12:50.140Z,95815.09
2019-03-24T20:15:16.451Z,95799.83
2019-03-24T20:17:42.735Z,95800.09
2019-03-24T20:20:09.185Z,95800.68
2019-03-24T20:22:35.472Z,95797.88
2019-03-24T20:25:01.770Z,95791.14
2019-03-24T20:27:28.075Z,95780.33
2019-03-24T20:29:54.346Z,95775.22
2019-03-24T20:32:20.634Z,95768.72
2019-03-24T20:34:46.873Z,95766.64
2019-03-24T20:37:13.141Z,95758.30
2019-03-24T20:39:39.327Z,95758.39
2019-03-24T20:42:05.618Z,95745.73
2019-03-24T20:44:31.873Z,95758.61
2019-03-24T20:46:58.045Z,95758.23
2019-03-24T20:49:24.336Z,95748.96
2019-03-24T20:51:50.574Z,95752.37
2019-03-24T20:54:16.863Z,95746.72
2019-03-24T20:56:43.123Z,95746.47
2019-03-24T20:59:09.447Z,95751.30
2019-03-24T21:01:35.730Z,95748.61
2019-03-24T21:04:01.972Z,95744.22
2019-03-24T21:06:28.331Z,95748.86
2019-03-24T21:08:54.604Z,95755.95
2019-03-24T21:11:20.843Z,95749.22
2019-03-24T21:13:47.220Z,95751.83
2019-03-24T21:16:13.433Z,95757.33
2019-03-24T21:18:39.682Z,95747.44
2019-03-24T21:21:06.012Z,95756.57
2019-03-24T21:23:32.260Z,95759.27
2019-03-24T21:25:58.498Z,95750.75
2019-03-24T21:28:24.756Z,95745.79
2019-03-24T21:30:50.991Z,95732.00
2019-03-24T21:33:17.253Z,95732.34
2019-03-24T21:35:43.507Z,95728.58
2019-03-24T21:38:09.753Z,95721.81
2019-03-24T21:40:37.871Z,95720.80
2019-03-24T21:43:06.488Z,95718.97
2019-03-24T21:45:34.692Z,95715.55
2019-03-24T21:48:00.899Z,95711.91
2019-03-24T21:50:27.158Z,95716.93
2019-03-24T21:52:53.283Z,95703.83
2019-03-24T21:55:19.556Z,95704.84
2019-03-24T21:57:56.920Z,95697.63
2019-03-24T22:00:17.580Z,95685.84
2019-03-24T22:02:43.708Z,95684.61
2019-03-24T22:05:09.859Z,95672.19
2019-03-24T22:07:36.114Z,95670.13
2019-03-24T22:10:04.248Z,95666.23
2019-03-24T22:12:33.277Z,95666.12
2019-03-24T22:14:59.459Z,95651.21
2019-03-24T22:17:25.718Z,95641.37
2019-03-24T22:19:51.912Z,95621.41
2019-03-24T22:22:20.828Z,95624.23
2019-03-24T22:24:47.083Z,95621.64
2019-03-24T22:27:13.359Z,95626.27
2019-03-24T22:29:41.879Z,95634.78
2019-03-24T22:32:08.039Z,95636.73
2019-03-24T22:34:34.325Z,95660.02
2019-03-24T22:37:00.371Z,95667.64
2019-03-24T22:39:26.642Z,95667.68
2019-03-24T22:41:52.803Z,95661.55
2019-03-24T22:44:19.334Z,95667.94
2019-03-24T22:46:45.486Z,95664.82
2019-03-24T22:49:13.604Z,95656.45
2019-03-24T22:51:39.837Z,95653.14
2019-03-24T22:54:05.984Z,95653.44
2019-03-24T22:56:32.106Z,95643.27
2019-03-24T22:58:58.334Z,95631.55
2019-03-24T23:01:24.598Z,95626.92
2019-03-24T23:03:50.904Z,95628.87
2019-03-24T23:06:17.151Z,95614.03
2019-03-24T23:08:43.387Z,95614.47
2019-03-24T23:11:09.517Z,95612.52
2019-03-24T23:13:35.759Z,95612.14
2019-03-24T23:16:01.932Z,95611.46
2019-03-24T23:18:28.063Z,95621.30
2019-03-24T23:20:54.362Z,95618.28
2019-03-24T23:23:20.468Z,95620.91
2019-03-24T23:25:46.740Z,95622.37
2019-03-24T23:28:12.989Z,95613.95
2019-03-24T23:30:39.251Z,95606.70
2019-03-24T23:33:05.379Z,95603.58
2019-03-24T23:35:31.600Z,95602.26
2019-03-24T23:37:57.825Z,95602.20
2019-03-24T23:40:24.460Z,95604.27
2019-03-24T23:42:52.504Z,95596.87
2019-03-24T23:45:19.462Z,95607.38
2019-03-24T23:47:45.734Z,95606.07
2019-03-24T23:50:12.077Z,95600.46
2019-03-24T23:52:38.320Z,95607.83
2019-03-24T23:55:04.790Z,95592.05
2019-03-24T23:57:32.819Z,95583.37
2019-03-24T23:59:58.966Z,95581.03
